Main page
METAR-TAF:

METAR-TAF

Airports :

Cazaux Air Base

Cazaux, France

latitude: 44-32N, longitude: 001-08W, elevation: 25 m

Current weather observation

The report was made 29 minutes ago, at 23:30 UTC
Wind 7 kt from the North
Temperature 6°C
Humidity 93%
Pressure 1010 hPa
Visibility 10 km or more
Few clouds at a height of 4400 ft
Overcast at a height of 5600 ft

METAR: LFBC 172330Z AUTO 01007KT 9999 FEW044 OVC056 06/05 Q1010

Time: 00:59 (23:59 UTC)


TAF: missing

Weather observations and forecasts of more than 4000 airports (METAR and TAF reports).

The available stations are represented by yellow and red dots on the map.

Hover mouse over dot to see the name of the station.

Then click to see weather observations and forecasts.

To change the map : click on the green buttons with a black cross to zoom in, on the green button with a dash to zoom out, or on the green arrows for adjacent maps.


METAR-TAF: